sensor_id;sensor_type;location;lat;lon;timestamp;pressure;altitude;pressure_sealevel;temperature;humidity
30421;BME280;17218;54.070;10.012;2024-02-23T00:02:04;97472.44;;;9.13;100.00
30421;BME280;17218;54.070;10.012;2024-02-23T00:04:31;97489.19;;;9.05;100.00
30421;BME280;17218;54.070;10.012;2024-02-23T00:06:57;97462.13;;;8.97;100.00
30421;BME280;17218;54.070;10.012;2024-02-23T00:09:25;97469.34;;;8.90;100.00
30421;BME280;17218;54.070;10.012;2024-02-23T00:11:52;97476.91;;;8.77;100.00
30421;BME280;17218;54.070;10.012;2024-02-23T00:14:19;97487.31;;;8.75;100.00
30421;BME280;17218;54.070;10.012;2024-02-23T00:16:46;97478.22;;;8.68;100.00
30421;BME280;17218;54.070;10.012;2024-02-23T00:19:13;97469.59;;;8.69;100.00
30421;BME280;17218;54.070;10.012;2024-02-23T00:21:40;97464.72;;;8.63;100.00
30421;BME280;17218;54.070;10.012;2024-02-23T00:24:07;97478.38;;;8.65;100.00
30421;BME280;17218;54.070;10.012;2024-02-23T00:26:35;97495.78;;;8.61;100.00
30421;BME280;17218;54.070;10.012;2024-02-23T00:29:02;97493.72;;;8.50;100.00
30421;BME280;17218;54.070;10.012;2024-02-23T00:31:29;97483.31;;;8.52;100.00
30421;BME280;17218;54.070;10.012;2024-02-23T00:33:55;97499.09;;;8.45;100.00
30421;BME280;17218;54.070;10.012;2024-02-23T00:36:22;97494.19;;;8.41;100.00
30421;BME280;17218;54.070;10.012;2024-02-23T00:38:48;97511.84;;;8.49;100.00
30421;BME280;17218;54.070;10.012;2024-02-23T00:41:15;97524.38;;;8.39;100.00
30421;BME280;17218;54.070;10.012;2024-02-23T00:43:42;97529.22;;;8.45;100.00
30421;BME280;17218;54.070;10.012;2024-02-23T00:46:09;97536.22;;;8.43;100.00
30421;BME280;17218;54.070;10.012;2024-02-23T00:48:35;97545.78;;;8.41;100.00
30421;BME280;17218;54.070;10.012;2024-02-23T00:51:02;97557.44;;;8.48;100.00
30421;BME280;17218;54.070;10.012;2024-02-23T00:53:30;97577.94;;;8.33;100.00
30421;BME280;17218;54.070;10.012;2024-02-23T00:55:57;97587.50;;;8.31;100.00
30421;BME280;17218;54.070;10.012;2024-02-23T00:58:23;97609.66;;;7.79;100.00
30421;BME280;17218;54.070;10.012;2024-02-23T01:00:51;97635.09;;;7.48;100.00
30421;BME280;17218;54.070;10.012;2024-02-23T01:03:17;97628.94;;;6.91;100.00
30421;BME280;17218;54.070;10.012;2024-02-23T01:05:44;97630.50;;;6.75;100.00
30421;BME280;17218;54.070;10.012;2024-02-23T01:08:10;97650.13;;;6.55;100.00
30421;BME280;17218;54.070;10.012;2024-02-23T01:10:37;97647.63;;;6.53;100.00
30421;BME280;17218;54.070;10.012;2024-02-23T01:13:04;97661.19;;;6.57;100.00
30421;BME280;17218;54.070;10.012;2024-02-23T01:15:31;97663.69;;;6.59;100.00
30421;BME280;17218;54.070;10.012;2024-02-23T01:17:59;97675.69;;;6.60;100.00
30421;BME280;17218;54.070;10.012;2024-02-23T01:20:25;97675.38;;;6.67;100.00
30421;BME280;17218;54.070;10.012;2024-02-23T01:22:52;97718.19;;;6.68;100.00
30421;BME280;17218;54.070;10.012;2024-02-23T01:25:18;97690.19;;;6.61;100.00
30421;BME280;17218;54.070;10.012;2024-02-23T01:27:44;97701.22;;;6.64;100.00
30421;BME280;17218;54.070;10.012;2024-02-23T01:30:11;97702.41;;;6.55;100.00
30421;BME280;17218;54.070;10.012;2024-02-23T01:32:38;97707.78;;;6.49;100.00
30421;BME280;17218;54.070;10.012;2024-02-23T01:35:07;97724.00;;;6.29;100.00
30421;BME280;17218;54.070;10.012;2024-02-23T01:37:34;97724.31;;;6.21;100.00
30421;BME280;17218;54.070;10.012;2024-02-23T01:40:00;97746.81;;;6.14;100.00
30421;BME280;17218;54.070;10.012;2024-02-23T01:42:27;97733.75;;;6.20;100.00
30421;BME280;17218;54.070;10.012;2024-02-23T01:44:53;97746.72;;;6.17;100.00
30421;BME280;17218;54.070;10.012;2024-02-23T01:47:22;97757.03;;;6.16;100.00
30421;BME280;17218;54.070;10.012;2024-02-23T01:49:49;97782.75;;;6.16;100.00
30421;BME280;17218;54.070;10.012;2024-02-23T01:52:17;97774.09;;;6.18;100.00
30421;BME280;17218;54.070;10.012;2024-02-23T01:54:44;97807.50;;;6.18;100.00
30421;BME280;17218;54.070;10.012;2024-02-23T01:57:11;97804.84;;;5.96;100.00
30421;BME280;17218;54.070;10.012;2024-02-23T01:59:38;97843.38;;;5.96;100.00
30421;BME280;17218;54.070;10.012;2024-02-23T02:02:05;97840.75;;;5.97;100.00
30421;BME280;17218;54.070;10.012;2024-02-23T02:04:31;97843.81;;;6.09;100.00
30421;BME280;17218;54.070;10.012;2024-02-23T02:06:59;97869.94;;;5.96;100.00
30421;BME280;17218;54.070;10.012;2024-02-23T02:09:27;97870.25;;;5.87;100.00
30421;BME280;17218;54.070;10.012;2024-02-23T02:11:53;97886.56;;;5.86;100.00
30421;BME280;17218;54.070;10.012;2024-02-23T02:14:19;97881.00;;;5.99;100.00
30421;BME280;17218;54.070;10.012;2024-02-23T02:16:46;97882.88;;;5.93;100.00
30421;BME280;17218;54.070;10.012;2024-02-23T02:19:13;97934.28;;;5.93;100.00
30421;BME280;17218;54.070;10.012;2024-02-23T02:21:40;97921.31;;;5.71;100.00
30421;BME280;17218;54.070;10.012;2024-02-23T02:24:07;97939.41;;;5.66;100.00
30421;BME280;17218;54.070;10.012;2024-02-23T02:26:36;97937.75;;;5.65;100.00
30421;BME280;17218;54.070;10.012;2024-02-23T02:29:03;97934.69;;;5.54;100.00
30421;BME280;17218;54.070;10.012;2024-02-23T02:31:30;97962.03;;;5.55;100.00
30421;BME280;17218;54.070;10.012;2024-02-23T02:34:02;97974.13;;;5.51;100.00
30421;BME280;17218;54.070;10.012;2024-02-23T02:36:28;97975.91;;;5.49;100.00
30421;BME280;17218;54.070;10.012;2024-02-23T02:38:55;98008.19;;;5.58;100.00
30421;BME280;17218;54.070;10.012;2024-02-23T02:41:23;98015.88;;;5.58;100.00
30421;BME280;17218;54.070;10.012;2024-02-23T02:43:52;98005.13;;;5.45;100.00
30421;BME280;17218;54.070;10.012;2024-02-23T02:46:18;98024.31;;;5.33;100.00
30421;BME280;17218;54.070;10.012;2024-02-23T02:48:45;98030.19;;;5.36;100.00
30421;BME280;17218;54.070;10.012;2024-02-23T02:51:12;98047.13;;;5.42;100.00
30421;BME280;17218;54.070;10.012;2024-02-23T02:53:39;98033.88;;;5.28;100.00
30421;BME280;17218;54.070;10.012;2024-02-23T02:56:05;98045.16;;;5.22;100.00
30421;BME280;17218;54.070;10.012;2024-02-23T02:58:32;98039.00;;;5.28;100.00
30421;BME280;17218;54.070;10.012;2024-02-23T03:01:00;98043.00;;;5.38;100.00
30421;BME280;17218;54.070;10.012;2024-02-23T03:03:27;98057.28;;;5.17;100.00
30421;BME280;17218;54.070;10.012;2024-02-23T03:05:53;98048.72;;;5.18;100.00
30421;BME280;17218;54.070;10.012;2024-02-23T03:08:20;98077.81;;;5.17;100.00
30421;BME280;17218;54.070;10.012;2024-02-23T03:10:46;98071.66;;;5.22;100.00
30421;BME280;17218;54.070;10.012;2024-02-23T03:13:13;98066.75;;;5.15;100.00
30421;BME280;17218;54.070;10.012;2024-02-23T03:15:40;98084.81;;;5.11;100.00
30421;BME280;17218;54.070;10.012;2024-02-23T03:18:08;98086.28;;;5.20;100.00
30421;BME280;17218;54.070;10.012;2024-02-23T03:20:35;98092.34;;;5.18;100.00
30421;BME280;17218;54.070;10.012;2024-02-23T03:23:01;98093.22;;;5.17;100.00
30421;BME280;17218;54.070;10.012;2024-02-23T03:25:28;98096.53;;;5.20;100.00
30421;BME280;17218;54.070;10.012;2024-02-23T03:27:55;98109.28;;;5.23;100.00
30421;BME280;17218;54.070;10.012;2024-02-23T03:30:22;98111.84;;;5.23;100.00
30421;BME280;17218;54.070;10.012;2024-02-23T03:32:48;98124.69;;;5.23;100.00
30421;BME280;17218;54.070;10.012;2024-02-23T03:35:16;98121.50;;;5.15;100.00
30421;BME280;17218;54.070;10.012;2024-02-23T03:37:43;98128.25;;;4.86;100.00
30421;BME280;17218;54.070;10.012;2024-02-23T03:40:09;98143.78;;;4.80;100.00
30421;BME280;17218;54.070;10.012;2024-02-23T03:42:36;98153.41;;;4.70;100.00
30421;BME280;17218;54.070;10.012;2024-02-23T03:45:04;98147.63;;;4.63;100.00
30421;BME280;17218;54.070;10.012;2024-02-23T03:47:31;98165.69;;;4.58;100.00
30421;BME280;17218;54.070;10.012;2024-02-23T03:49:57;98156.25;;;4.60;100.00
30421;BME280;17218;54.070;10.012;2024-02-23T03:52:26;98152.03;;;4.58;100.00
30421;BME280;17218;54.070;10.012;2024-02-23T03:54:52;98159.59;;;4.62;100.00
30421;BME280;17218;54.070;10.012;2024-02-23T03:57:20;98166.34;;;4.67;100.00
30421;BME280;17218;54.070;10.012;2024-02-23T03:59:51;98172.44;;;4.61;100.00
30421;BME280;17218;54.070;10.012;2024-02-23T04:02:18;98174.78;;;4.70;100.00
30421;BME280;17218;54.070;10.012;2024-02-23T04:04:45;98171.16;;;4.79;100.00
30421;BME280;17218;54.070;10.012;2024-02-23T04:07:11;98173.88;;;4.73;100.00
30421;BME280;17218;54.070;10.012;2024-02-23T04:09:39;98184.78;;;4.81;100.00
30421;BME280;17218;54.070;10.012;2024-02-23T04:12:06;98181.41;;;4.81;100.00
30421;BME280;17218;54.070;10.012;2024-02-23T04:18:04;98206.78;;;4.92;100.00
30421;BME280;17218;54.070;10.012;2024-02-23T04:20:30;98221.28;;;4.93;100.00
30421;BME280;17218;54.070;10.012;2024-02-23T04:22:58;98206.78;;;4.90;100.00
30421;BME280;17218;54.070;10.012;2024-02-23T04:25:25;98244.19;;;5.00;100.00
30421;BME280;17218;54.070;10.012;2024-02-23T04:27:52;98232.75;;;5.12;100.00
30421;BME280;17218;54.070;10.012;2024-02-23T04:30:19;98231.84;;;5.15;100.00
30421;BME280;17218;54.070;10.012;2024-02-23T04:32:45;98250.72;;;5.12;100.00
30421;BME280;17218;54.070;10.012;2024-02-23T04:35:13;98244.28;;;5.31;100.00
30421;BME280;17218;54.070;10.012;2024-02-23T04:37:39;98247.25;;;5.15;100.00
30421;BME280;17218;54.070;10.012;2024-02-23T04:40:07;98262.75;;;5.10;100.00
30421;BME280;17218;54.070;10.012;2024-02-23T04:42:35;98271.25;;;5.14;100.00
30421;BME280;17218;54.070;10.012;2024-02-23T04:45:01;98272.41;;;5.00;100.00
30421;BME280;17218;54.070;10.012;2024-02-23T04:47:28;98274.25;;;4.95;100.00
30421;BME280;17218;54.070;10.012;2024-02-23T04:49:54;98290.47;;;4.97;100.00
30421;BME280;17218;54.070;10.012;2024-02-23T04:52:21;98283.00;;;4.86;100.00
30421;BME280;17218;54.070;10.012;2024-02-23T04:54:47;98297.03;;;4.71;100.00
30421;BME280;17218;54.070;10.012;2024-02-23T04:57:14;98301.28;;;4.72;100.00
30421;BME280;17218;54.070;10.012;2024-02-23T04:59:41;98281.47;;;4.77;100.00
30421;BME280;17218;54.070;10.012;2024-02-23T05:02:08;98316.56;;;4.77;100.00
30421;BME280;17218;54.070;10.012;2024-02-23T05:04:34;98309.09;;;4.66;100.00
30421;BME280;17218;54.070;10.012;2024-02-23T05:07:01;98316.00;;;4.64;100.00
30421;BME280;17218;54.070;10.012;2024-02-23T05:09:27;98311.66;;;4.68;100.00
30421;BME280;17218;54.070;10.012;2024-02-23T05:11:54;98322.84;;;4.63;100.00
30421;BME280;17218;54.070;10.012;2024-02-23T05:14:20;98329.56;;;4.69;100.00
30421;BME280;17218;54.070;10.012;2024-02-23T05:16:48;98333.75;;;4.73;100.00
30421;BME280;17218;54.070;10.012;2024-02-23T05:19:15;98348.59;;;4.57;100.00
30421;BME280;17218;54.070;10.012;2024-02-23T05:21:42;98364.00;;;4.57;100.00
30421;BME280;17218;54.070;10.012;2024-02-23T05:24:10;98349.34;;;4.62;100.00
30421;BME280;17218;54.070;10.012;2024-02-23T05:26:37;98354.44;;;4.65;100.00
30421;BME280;17218;54.070;10.012;2024-02-23T05:29:03;98350.00;;;4.72;100.00
30421;BME280;17218;54.070;10.012;2024-02-23T05:31:44;98350.75;;;4.77;100.00
30421;BME280;17218;54.070;10.012;2024-02-23T05:34:12;98371.66;;;4.59;100.00
30421;BME280;17218;54.070;10.012;2024-02-23T05:36:39;98356.25;;;4.59;100.00
30421;BME280;17218;54.070;10.012;2024-02-23T05:39:06;98367.53;;;4.53;100.00
30421;BME280;17218;54.070;10.012;2024-02-23T05:41:33;98396.50;;;4.57;100.00
30421;BME280;17218;54.070;10.012;2024-02-23T05:43:59;98370.00;;;4.56;100.00
30421;BME280;17218;54.070;10.012;2024-02-23T05:46:26;98380.41;;;4.48;100.00
30421;BME280;17218;54.070;10.012;2024-02-23T05:48:52;98376.84;;;4.56;100.00
30421;BME280;17218;54.070;10.012;2024-02-23T05:51:20;98378.75;;;4.47;100.00
30421;BME280;17218;54.070;10.012;2024-02-23T05:53:47;98389.03;;;4.44;100.00
30421;BME280;17218;54.070;10.012;2024-02-23T05:56:13;98383.81;;;4.50;100.00
30421;BME280;17218;54.070;10.012;2024-02-23T05:58:39;98400.78;;;4.56;100.00
30421;BME280;17218;54.070;10.012;2024-02-23T06:01:06;98378.63;;;4.52;100.00
30421;BME280;17218;54.070;10.012;2024-02-23T06:03:33;98404.09;;;4.61;100.00
30421;BME280;17218;54.070;10.012;2024-02-23T06:05:59;98410.88;;;4.64;100.00
30421;BME280;17218;54.070;10.012;2024-02-23T06:08:27;98404.75;;;4.70;100.00
30421;BME280;17218;54.070;10.012;2024-02-23T06:10:54;98411.59;;;4.71;100.00
30421;BME280;17218;54.070;10.012;2024-02-23T06:13:20;98407.44;;;4.65;100.00
30421;BME280;17218;54.070;10.012;2024-02-23T06:15:47;98417.72;;;4.63;100.00
30421;BME280;17218;54.070;10.012;2024-02-23T06:18:13;98421.38;;;4.53;100.00
30421;BME280;17218;54.070;10.012;2024-02-23T06:20:40;98428.28;;;4.49;100.00
30421;BME280;17218;54.070;10.012;2024-02-23T06:23:06;98440.19;;;4.52;100.00
30421;BME280;17218;54.070;10.012;2024-02-23T06:25:34;98467.72;;;4.40;100.00
30421;BME280;17218;54.070;10.012;2024-02-23T06:28:00;98440.44;;;4.38;100.00
30421;BME280;17218;54.070;10.012;2024-02-23T06:30:27;98463.34;;;4.46;100.00
30421;BME280;17218;54.070;10.012;2024-02-23T06:32:53;98475.34;;;4.45;100.00
30421;BME280;17218;54.070;10.012;2024-02-23T06:35:20;98468.53;;;4.44;100.00
30421;BME280;17218;54.070;10.012;2024-02-23T06:37:47;98485.66;;;4.42;100.00
30421;BME280;17218;54.070;10.012;2024-02-23T06:40:13;98489.06;;;4.43;100.00
30421;BME280;17218;54.070;10.012;2024-02-23T06:42:41;98505.34;;;4.41;100.00
30421;BME280;17218;54.070;10.012;2024-02-23T06:45:08;98508.69;;;4.45;100.00
30421;BME280;17218;54.070;10.012;2024-02-23T06:47:35;98509.34;;;4.55;100.00
30421;BME280;17218;54.070;10.012;2024-02-23T06:50:01;98551.16;;;4.60;100.00
30421;BME280;17218;54.070;10.012;2024-02-23T06:52:28;98523.84;;;4.58;100.00
30421;BME280;17218;54.070;10.012;2024-02-23T06:54:55;98538.28;;;4.63;100.00
30421;BME280;17218;54.070;10.012;2024-02-23T06:57:21;98533.00;;;4.70;100.00
30421;BME280;17218;54.070;10.012;2024-02-23T06:59:52;98550.97;;;4.71;100.00
30421;BME280;17218;54.070;10.012;2024-02-23T07:02:19;98556.16;;;4.67;100.00
30421;BME280;17218;54.070;10.012;2024-02-23T07:04:45;98574.97;;;4.67;100.00
30421;BME280;17218;54.070;10.012;2024-02-23T07:07:12;98569.91;;;4.64;100.00
30421;BME280;17218;54.070;10.012;2024-02-23T07:09:38;98594.56;;;4.71;100.00
30421;BME280;17218;54.070;10.012;2024-02-23T07:12:06;98596.25;;;4.72;100.00
30421;BME280;17218;54.070;10.012;2024-02-23T07:14:32;98600.59;;;4.69;100.00
30421;BME280;17218;54.070;10.012;2024-02-23T07:17:00;98595.47;;;4.67;100.00
30421;BME280;17218;54.070;10.012;2024-02-23T07:19:27;98590.22;;;4.75;100.00
30421;BME280;17218;54.070;10.012;2024-02-23T07:21:53;98598.91;;;4.68;100.00
30421;BME280;17218;54.070;10.012;2024-02-23T07:24:20;98612.50;;;4.73;100.00
30421;BME280;17218;54.070;10.012;2024-02-23T07:26:46;98603.72;;;4.85;100.00
30421;BME280;17218;54.070;10.012;2024-02-23T07:29:13;98608.03;;;4.83;100.00
30421;BME280;17218;54.070;10.012;2024-02-23T07:31:39;98620.06;;;4.79;100.00
30421;BME280;17218;54.070;10.012;2024-02-23T07:34:07;98613.09;;;4.87;100.00
30421;BME280;17218;54.070;10.012;2024-02-23T07:36:34;98614.72;;;4.92;100.00
30421;BME280;17218;54.070;10.012;2024-02-23T07:39:00;98642.25;;;4.82;100.00
30421;BME280;17218;54.070;10.012;2024-02-23T07:41:28;98650.69;;;4.88;100.00
30421;BME280;17218;54.070;10.012;2024-02-23T07:43:54;98645.50;;;4.93;100.00
30421;BME280;17218;54.070;10.012;2024-02-23T07:46:21;98653.22;;;4.90;100.00
30421;BME280;17218;54.070;10.012;2024-02-23T07:48:48;98643.59;;;5.03;100.00
30421;BME280;17218;54.070;10.012;2024-02-23T07:51:16;98660.56;;;5.10;100.00
30421;BME280;17218;54.070;10.012;2024-02-23T07:53:42;98680.41;;;5.02;100.00
30421;BME280;17218;54.070;10.012;2024-02-23T07:56:09;98666.75;;;5.00;100.00
30421;BME280;17218;54.070;10.012;2024-02-23T07:58:35;98661.34;;;5.16;100.00
30421;BME280;17218;54.070;10.012;2024-02-23T08:01:02;98654.47;;;5.18;100.00
30421;BME280;17218;54.070;10.012;2024-02-23T08:03:29;98677.47;;;5.22;100.00
30421;BME280;17218;54.070;10.012;2024-02-23T08:05:55;98668.88;;;5.25;100.00
30421;BME280;17218;54.070;10.012;2024-02-23T08:08:23;98682.53;;;5.25;100.00
30421;BME280;17218;54.070;10.012;2024-02-23T08:10:52;98673.91;;;5.30;100.00
30421;BME280;17218;54.070;10.012;2024-02-23T08:13:18;98679.31;;;5.16;100.00
30421;BME280;17218;54.070;10.012;2024-02-23T08:15:46;98685.78;;;5.35;100.00
30421;BME280;17218;54.070;10.012;2024-02-23T08:18:12;98677.97;;;5.40;100.00
30421;BME280;17218;54.070;10.012;2024-02-23T08:20:39;98681.50;;;5.36;100.00
30421;BME280;17218;54.070;10.012;2024-02-23T08:23:05;98700.28;;;5.40;100.00
30421;BME280;17218;54.070;10.012;2024-02-23T08:25:33;98698.28;;;5.54;100.00
30421;BME280;17218;54.070;10.012;2024-02-23T08:27:59;98702.72;;;5.44;100.00
30421;BME280;17218;54.070;10.012;2024-02-23T08:30:26;98705.06;;;5.58;100.00
30421;BME280;17218;54.070;10.012;2024-02-23T08:32:52;98707.38;;;5.71;100.00
30421;BME280;17218;54.070;10.012;2024-02-23T08:35:19;98697.88;;;5.75;100.00
30421;BME280;17218;54.070;10.012;2024-02-23T08:37:46;98702.03;;;5.82;100.00
30421;BME280;17218;54.070;10.012;2024-02-23T08:40:12;98698.47;;;5.88;100.00
30421;BME280;17218;54.070;10.012;2024-02-23T08:42:40;98705.22;;;5.92;100.00
30421;BME280;17218;54.070;10.012;2024-02-23T08:45:08;98722.44;;;5.88;100.00
30421;BME280;17218;54.070;10.012;2024-02-23T08:47:37;98718.94;;;5.92;100.00
30421;BME280;17218;54.070;10.012;2024-02-23T08:50:05;98720.88;;;5.82;100.00
30421;BME280;17218;54.070;10.012;2024-02-23T08:52:31;98719.94;;;5.85;100.00
30421;BME280;17218;54.070;10.012;2024-02-23T08:54:58;98720.03;;;5.80;100.00
30421;BME280;17218;54.070;10.012;2024-02-23T08:57:25;98726.06;;;5.78;100.00
30421;BME280;17218;54.070;10.012;2024-02-23T08:59:54;98731.03;;;5.87;100.00
30421;BME280;17218;54.070;10.012;2024-02-23T09:02:22;98744.13;;;5.75;100.00
30421;BME280;17218;54.070;10.012;2024-02-23T09:04:49;98752.47;;;5.86;100.00
30421;BME280;17218;54.070;10.012;2024-02-23T09:07:15;98763.38;;;5.97;100.00
30421;BME280;17218;54.070;10.012;2024-02-23T09:09:45;98761.69;;;5.96;100.00
30421;BME280;17218;54.070;10.012;2024-02-23T09:12:11;98765.66;;;6.13;100.00
30421;BME280;17218;54.070;10.012;2024-02-23T09:14:40;98763.84;;;6.18;100.00
30421;BME280;17218;54.070;10.012;2024-02-23T09:17:08;98773.34;;;6.15;100.00
30421;BME280;17218;54.070;10.012;2024-02-23T09:19:35;98778.25;;;6.26;100.00
30421;BME280;17218;54.070;10.012;2024-02-23T09:22:02;98776.22;;;6.40;100.00
30421;BME280;17218;54.070;10.012;2024-02-23T09:24:28;98783.09;;;6.41;100.00
30421;BME280;17218;54.070;10.012;2024-02-23T09:26:55;98784.56;;;6.52;100.00
30421;BME280;17218;54.070;10.012;2024-02-23T09:29:21;98789.41;;;6.66;100.00
30421;BME280;17218;54.070;10.012;2024-02-23T09:31:48;98779.66;;;6.79;100.00
30421;BME280;17218;54.070;10.012;2024-02-23T09:34:16;98783.19;;;6.76;100.00
30421;BME280;17218;54.070;10.012;2024-02-23T09:36:42;98796.38;;;6.61;100.00
30421;BME280;17218;54.070;10.012;2024-02-23T09:39:09;98800.09;;;6.49;100.00
30421;BME280;17218;54.070;10.012;2024-02-23T09:41:36;98809.47;;;6.50;100.00
30421;BME280;17218;54.070;10.012;2024-02-23T09:44:04;98817.75;;;6.64;100.00
30421;BME280;17218;54.070;10.012;2024-02-23T09:46:32;98816.34;;;6.51;100.00
30421;BME280;17218;54.070;10.012;2024-02-23T09:49:00;98816.66;;;6.35;100.00
30421;BME280;17218;54.070;10.012;2024-02-23T09:51:29;98824.22;;;6.43;100.00
30421;BME280;17218;54.070;10.012;2024-02-23T09:53:58;98823.31;;;6.44;100.00
30421;BME280;17218;54.070;10.012;2024-02-23T09:56:27;98866.16;;;6.47;100.00
30421;BME280;17218;54.070;10.012;2024-02-23T09:58:55;98839.53;;;6.48;100.00
30421;BME280;17218;54.070;10.012;2024-02-23T10:01:27;98850.22;;;6.70;100.00
30421;BME280;17218;54.070;10.012;2024-02-23T10:03:54;98859.72;;;6.66;100.00
30421;BME280;17218;54.070;10.012;2024-02-23T10:06:22;98857.97;;;6.68;100.00
30421;BME280;17218;54.070;10.012;2024-02-23T10:08:50;98864.59;;;6.79;100.00
30421;BME280;17218;54.070;10.012;2024-02-23T10:11:18;98870.69;;;6.76;100.00
30421;BME280;17218;54.070;10.012;2024-02-23T10:13:44;98876.59;;;6.80;100.00
30421;BME280;17218;54.070;10.012;2024-02-23T10:16:11;98887.75;;;6.79;100.00
30421;BME280;17218;54.070;10.012;2024-02-23T10:18:38;98885.38;;;6.71;100.00
30421;BME280;17218;54.070;10.012;2024-02-23T10:21:04;98891.72;;;6.53;100.00
30421;BME280;17218;54.070;10.012;2024-02-23T10:23:31;98895.84;;;6.62;100.00
30421;BME280;17218;54.070;10.012;2024-02-23T10:25:59;98911.13;;;6.70;100.00
30421;BME280;17218;54.070;10.012;2024-02-23T10:28:26;98908.81;;;6.57;100.00
30421;BME280;17218;54.070;10.012;2024-02-23T10:30:53;98903.25;;;6.77;100.00
30421;BME280;17218;54.070;10.012;2024-02-23T10:33:22;98911.75;;;6.81;100.00
30421;BME280;17218;54.070;10.012;2024-02-23T10:35:48;98917.91;;;6.74;100.00
30421;BME280;17218;54.070;10.012;2024-02-23T10:38:20;98929.78;;;6.79;100.00
30421;BME280;17218;54.070;10.012;2024-02-23T10:40:47;98925.06;;;7.00;100.00
30421;BME280;17218;54.070;10.012;2024-02-23T10:43:18;98936.69;;;6.77;100.00
30421;BME280;17218;54.070;10.012;2024-02-23T10:45:46;98935.00;;;6.76;100.00
30421;BME280;17218;54.070;10.012;2024-02-23T10:48:15;98947.91;;;6.75;100.00
30421;BME280;17218;54.070;10.012;2024-02-23T10:50:41;98949.59;;;6.76;100.00
30421;BME280;17218;54.070;10.012;2024-02-23T10:53:10;98956.84;;;6.99;100.00
30421;BME280;17218;54.070;10.012;2024-02-23T10:55:37;98948.91;;;7.09;100.00
30421;BME280;17218;54.070;10.012;2024-02-23T10:58:06;98947.94;;;7.14;100.00
30421;BME280;17218;54.070;10.012;2024-02-23T11:00:37;98953.53;;;7.34;100.00
30421;BME280;17218;54.070;10.012;2024-02-23T11:03:05;98956.72;;;7.82;100.00
30421;BME280;17218;54.070;10.012;2024-02-23T11:05:33;98963.91;;;8.04;100.00
30421;BME280;17218;54.070;10.012;2024-02-23T11:08:00;98946.78;;;8.34;100.00
30421;BME280;17218;54.070;10.012;2024-02-23T11:10:26;98930.44;;;8.35;100.00
30421;BME280;17218;54.070;10.012;2024-02-23T11:12:57;98947.03;;;8.58;100.00
30421;BME280;17218;54.070;10.012;2024-02-23T11:15:26;98951.09;;;8.34;100.00
30421;BME280;17218;54.070;10.012;2024-02-23T11:17:54;98947.34;;;8.13;100.00
30421;BME280;17218;54.070;10.012;2024-02-23T11:20:21;98955.00;;;7.81;100.00
30421;BME280;17218;54.070;10.012;2024-02-23T11:22:51;98957.19;;;7.61;100.00
30421;BME280;17218;54.070;10.012;2024-02-23T11:25:19;98966.88;;;7.51;100.00
30421;BME280;17218;54.070;10.012;2024-02-23T11:27:49;98947.28;;;7.44;100.00
30421;BME280;17218;54.070;10.012;2024-02-23T11:30:17;98956.56;;;7.51;100.00
30421;BME280;17218;54.070;10.012;2024-02-23T11:32:45;98961.28;;;7.70;100.00
30421;BME280;17218;54.070;10.012;2024-02-23T11:35:16;98963.31;;;7.92;100.00
30421;BME280;17218;54.070;10.012;2024-02-23T11:37:48;98961.59;;;7.93;100.00
30421;BME280;17218;54.070;10.012;2024-02-23T11:40:17;98970.66;;;8.09;100.00
30421;BME280;17218;54.070;10.012;2024-02-23T11:42:43;98951.38;;;7.88;100.00
30421;BME280;17218;54.070;10.012;2024-02-23T11:45:10;98951.44;;;7.50;100.00
30421;BME280;17218;54.070;10.012;2024-02-23T11:47:37;98953.56;;;7.32;100.00
30421;BME280;17218;54.070;10.012;2024-02-23T11:50:04;98958.38;;;7.48;100.00
30421;BME280;17218;54.070;10.012;2024-02-23T11:52:34;98953.81;;;7.59;100.00
30421;BME280;17218;54.070;10.012;2024-02-23T11:55:00;98954.88;;;7.87;100.00
30421;BME280;17218;54.070;10.012;2024-02-23T11:57:27;98963.50;;;8.19;100.00
30421;BME280;17218;54.070;10.012;2024-02-23T11:59:54;98954.22;;;8.45;100.00
30421;BME280;17218;54.070;10.012;2024-02-23T12:02:20;98953.81;;;8.29;100.00
30421;BME280;17218;54.070;10.012;2024-02-23T12:04:47;98962.69;;;8.19;100.00
30421;BME280;17218;54.070;10.012;2024-02-23T12:07:14;98978.41;;;7.73;100.00
30421;BME280;17218;54.070;10.012;2024-02-23T12:09:43;98964.41;;;7.83;100.00
30421;BME280;17218;54.070;10.012;2024-02-23T12:12:09;98957.53;;;7.84;100.00
30421;BME280;17218;54.070;10.012;2024-02-23T12:14:36;98956.41;;;7.94;100.00
30421;BME280;17218;54.070;10.012;2024-02-23T12:17:02;98955.91;;;8.15;100.00
30421;BME280;17218;54.070;10.012;2024-02-23T12:19:31;98962.41;;;7.95;100.00
30421;BME280;17218;54.070;10.012;2024-02-23T12:21:59;98936.47;;;7.66;100.00
30421;BME280;17218;54.070;10.012;2024-02-23T12:24:26;98942.34;;;7.71;100.00
30421;BME280;17218;54.070;10.012;2024-02-23T12:26:55;98966.25;;;7.78;100.00
30421;BME280;17218;54.070;10.012;2024-02-23T12:29:21;98951.38;;;7.88;100.00
30421;BME280;17218;54.070;10.012;2024-02-23T12:31:48;98961.09;;;7.78;100.00
30421;BME280;17218;54.070;10.012;2024-02-23T12:34:14;98963.72;;;7.77;100.00
30421;BME280;17218;54.070;10.012;2024-02-23T12:36:41;98964.59;;;7.75;100.00
30421;BME280;17218;54.070;10.012;2024-02-23T12:39:07;98957.22;;;7.96;100.00
30421;BME280;17218;54.070;10.012;2024-02-23T12:41:34;98967.56;;;7.95;100.00
30421;BME280;17218;54.070;10.012;2024-02-23T12:44:02;98963.50;;;8.21;100.00
30421;BME280;17218;54.070;10.012;2024-02-23T12:46:28;98959.19;;;8.53;100.00
30421;BME280;17218;54.070;10.012;2024-02-23T12:48:55;98973.16;;;8.46;100.00
30421;BME280;17218;54.070;10.012;2024-02-23T12:51:25;98982.66;;;8.10;100.00
30421;BME280;17218;54.070;10.012;2024-02-23T12:53:51;98965.44;;;8.11;100.00